Latest Weather Observations for Kempsey Airport

IDN60801

Issued at 10:32 am EDT Sunday 14 February 2016 (issued every 30 minutes, with the page automatically refreshed every 10 minutes)

About weather observations | Map of weather stations | Latest weather observations for NSW | Other Formats
Station Details ID: 059007 Name: KEMPSEY AIRPORT AWS Lat: -31.07 Lon: 152.77 Height: 13.0 m
Data from the previous 72 hours. | See also: Recent months at Kempsey Airport
Date/Time
EDT
Temp
°C
App
Temp
°C
Dew
Point
Rel
Hum
%
Delta-T
°C
Wind Press
QNH
hPa
Press
MSL
hPa
Rain
since 9 am
mm
Dir
 
Spd
km/h
Gust
km/h
Spd
kts
Gust
kts
14/10:30am 25.8 26.6 17.2 59 5.4 N 9 15 5 8 1010.6 1010.5 0.0
14/10:00am 24.9 25.4 17.4 63 4.7 NNW 11 15 6 8 1010.9 1010.8 0.0
14/09:30am 23.3 24.3 17.7 71 3.5 WNW 9 15 5 8 1011.1 1011.0 0.0
14/09:00am 21.7 22.9 18.3 81 2.1 WNW 9 11 5 6 1011.3 1011.2 0.0
14/08:30am 19.7 21.1 17.7 88 1.2 W 7 11 4 6 1011.4 1011.3 0.0
14/08:00am 17.9 18.9 16.8 93 0.7 W 7 11 4 6 1011.3 1011.2 0.0
14/07:30am 16.6 17.3 15.6 94 0.6 WSW 6 7 3 4 1011.2 1011.1 0.0
14/07:00am 15.0 15.1 14.0 94 0.6 WSW 6 7 3 4 1010.9 1010.8 0.0
14/06:30am 14.3 14.0 13.3 94 0.6 WSW 7 9 4 5 1010.6 1010.5 0.0
14/06:00am 14.0 15.0 13.1 94 0.5 CALM 0 0 0 0 1010.4 1010.3 0.0
14/05:30am 14.0 14.9 12.9 93 0.6 CALM 0 0 0 0 1010.2 1010.1 0.0
14/05:00am 14.1 15.0 13.0 93 0.6 CALM 0 0 0 0 1010.0 1009.9 0.0
14/04:30am 14.4 14.3 13.3 93 0.6 W 6 7 3 4 1010.1 1010.0 0.0
14/04:00am 14.2 15.1 12.9 92 0.7 CALM 0 0 0 0 1010.0 1009.9 0.0
14/03:30am 14.7 15.8 13.6 93 0.6 CALM 0 0 0 0 1010.1 1010.0 0.0
14/03:00am 15.4 15.6 14.3 93 0.6 WSW 6 7 3 4 1010.3 1010.2 0.0
14/02:30am 15.8 16.0 14.7 93 0.6 WSW 7 9 4 5 1010.5 1010.4 0.0
14/02:00am 15.4 15.5 13.9 91 0.8 WSW 6 7 3 4 1011.1 1011.0 0.0
14/01:30am 16.1 17.3 14.8 92 0.7 WSW 2 7 1 4 1011.5 1011.4 0.0
14/01:00am 16.7 18.5 15.4 92 0.8 CALM 0 0 0 0 1011.8 1011.7 0.0
14/12:30am 16.6 16.9 15.1 91 0.9 W 7 9 4 5 1012.1 1012.0 0.0
14/12:00am 16.7 17.2 14.9 89 1.0 WSW 6 9 3 5 1012.2 1012.1 0.0
 
Date/Time
EDT
Temp
°C
App
Temp
°C
Dew
Point
Rel
Hum
%
Delta-T
°C
Wind Press
QNH
hPa
Press
MSL
hPa
Rain
since 9 am
mm
Dir
 
Spd
km/h
Gust
km/h
Spd
kts
Gust
kts
13/11:30pm 17.5 19.4 15.7 89 1.1 CALM 0 0 0 0 1012.5 1012.4 0.0
13/11:00pm 18.0 20.0 16.0 88 1.2 CALM 0 0 0 0 1012.7 1012.6 0.0
13/10:30pm 18.4 20.5 16.2 87 1.3 CALM 0 0 0 0 1012.9 1012.8 0.0
13/10:00pm 19.1 20.0 16.5 85 1.6 W 7 9 4 5 1012.9 1012.8 0.0
13/09:30pm 19.9 20.8 16.7 82 1.9 WSW 7 9 4 5 1012.8 1012.7 0.0
13/09:00pm 21.4 23.9 17.2 77 2.6 CALM 0 0 0 0 1012.7 1012.6 0.0
13/08:30pm 22.1 24.3 17.5 75 2.8 ESE 2 6 1 3 1012.8 1012.7 0.0
13/08:00pm 21.9 22.8 16.6 72 3.2 ENE 7 9 4 5 1012.6 1012.5 0.0
13/07:30pm 22.9 23.3 16.2 66 4.1 NE 9 13 5 7 1012.2 1012.1 0.0
13/07:00pm 24.4 24.1 16.4 61 4.9 ENE 13 19 7 10 1011.9 1011.8 0.0
13/06:30pm 25.4 25.1 16.5 58 5.5 ENE 13 17 7 9 1011.9 1011.8 0.0
13/06:00pm 26.1 25.6 16.9 57 5.7 ENE 15 20 8 11 1011.7 1011.6 0.0
13/05:30pm 26.3 25.8 16.8 56 5.9 ENE 15 22 8 12 1011.8 1011.7 0.0
13/05:00pm 25.9 25.7 17.5 59 5.3 ENE 15 20 8 11 1011.9 1011.8 0.0
13/04:30pm 27.4 27.0 18.1 57 5.9 ENE 17 22 9 12 1012.0 1011.9 0.0
13/04:00pm 26.4 25.3 17.2 57 5.7 ENE 19 28 10 15 1012.3 1012.2 0.0
13/03:30pm 28.0 27.6 18.1 55 6.3 ENE 17 24 9 13 1012.5 1012.4 0.0
13/03:00pm 26.9 25.7 17.1 55 6.1 ENE 19 28 10 15 1012.7 1012.6 0.0
13/02:30pm 27.5 27.0 17.7 55 6.2 E 17 24 9 13 1012.9 1012.8 0.0
13/02:00pm 27.4 26.6 17.0 53 6.5 E 17 24 9 13 1013.2 1013.1 0.0
13/01:30pm 27.4 26.2 17.6 55 6.2 E 20 26 11 14 1013.3 1013.2 0.0
13/01:00pm 27.2 27.3 16.5 52 6.6 ESE 11 19 6 10 1013.4 1013.3 0.0
13/12:30pm 27.3 28.4 17.2 54 6.3 ESE 7 11 4 6 1013.6 1013.5 0.0
13/12:00pm 26.6 27.2 15.9 51 6.6 S 7 13 4 7 1014.1 1014.0 0.0
13/11:30am 26.6 26.9 15.9 51 6.6 SSE 9 13 5 7 1014.5 1014.4 0.0
13/11:00am 26.2 27.5 17.6 59 5.4 SSE 7 13 4 7 1014.7 1014.6 0.0
13/10:30am 26.0 27.1 16.5 55 5.9 WNW 6 9 3 5 1014.9 1014.8 0.0
13/10:00am 24.8 25.7 17.5 64 4.6 SW 9 11 5 6 1014.8 1014.7 0.0
13/09:30am 23.7 24.6 18.4 72 3.3 WSW 11 13 6 7 1014.8 1014.7 0.0
13/09:00am 21.9 23.1 18.3 80 2.2 W 9 11 5 6 1015.0 1014.9 0.0
13/08:30am 19.9 20.8 17.5 86 1.5 WNW 9 13 5 7 1015.2 1015.1 0.0
13/08:00am 19.0 19.7 17.1 89 1.2 WNW 9 13 5 7 1014.9 1014.8 0.0
13/07:30am 17.9 18.9 16.8 93 0.7 WNW 7 11 4 6 1014.6 1014.5 0.0
13/07:00am 16.6 18.1 15.6 94 0.6 W 2 6 1 3 1014.5 1014.4 0.0
13/06:30am 16.1 16.4 15.0 93 0.6 WSW 7 9 4 5 1014.4 1014.3 0.0
13/06:00am 16.0 16.5 14.9 93 0.6 WNW 6 9 3 5 1014.2 1014.1 0.0
13/05:30am 16.2 16.5 15.1 93 0.6 W 7 11 4 6 1013.9 1013.8 0.0
13/05:00am 16.5 16.9 15.4 93 0.6 WSW 7 9 4 5 1013.9 1013.8 0.0
13/04:30am 16.3 17.9 15.0 92 0.8 CALM 0 0 0 0 1014.1 1014.0 0.0
13/04:00am 16.8 18.7 15.7 93 0.6 CALM 0 0 0 0 1014.1 1014.0 0.0
13/03:30am 16.9 18.8 15.8 93 0.6 CALM 0 0 0 0 1014.2 1014.1 0.0
13/03:00am 16.4 17.3 15.1 92 0.8 WSW 4 7 2 4 1014.2 1014.1 0.0
13/02:30am 16.7 18.4 15.2 91 0.9 CALM 0 0 0 0 1014.2 1014.1 0.0
13/02:00am 17.2 17.9 15.7 91 0.9 W 6 7 3 4 1014.3 1014.2 0.0
13/01:30am 17.1 17.7 15.4 90 1.0 W 6 7 3 4 1014.7 1014.6 0.0
13/01:00am 17.7 18.6 16.0 90 1.0 WNW 6 7 3 4 1014.9 1014.8 0.0
13/12:30am 17.8 18.7 16.1 90 1.0 W 6 9 3 5 1015.4 1015.3 0.0
13/12:00am 18.0 18.8 16.3 90 1.0 W 7 7 4 4 1015.6 1015.5 0.0
 
Date/Time
EDT
Temp
°C
App
Temp
°C
Dew
Point
Rel
Hum
%
Delta-T
°C
Wind Press
QNH
hPa
Press
MSL
hPa
Rain
since 9 am
mm
Dir
 
Spd
km/h
Gust
km/h
Spd
kts
Gust
kts
12/11:30pm 18.1 18.9 16.3 89 1.1 W 7 9 4 5 1015.7 1015.6 0.0
12/11:00pm 18.1 19.1 16.3 89 1.1 W 6 9 3 5 1015.8 1015.7 0.0
12/10:30pm 18.2 20.3 16.2 88 1.2 CALM 0 0 0 0 1016.0 1015.9 0.0
12/10:00pm 18.8 21.1 16.8 88 1.2 CALM 0 0 0 0 1016.0 1015.9 0.0
12/09:30pm 18.9 21.0 16.3 85 1.6 CALM 0 0 0 0 1016.0 1015.9 0.0
12/09:00pm 19.4 21.4 16.1 81 2.0 CALM 0 0 0 0 1015.7 1015.6 0.0
12/08:30pm 20.5 22.5 16.1 76 2.6 CALM 0 0 0 0 1015.6 1015.5 0.0
12/08:00pm 22.3 24.2 16.6 70 3.5 ENE 2 7 1 4 1015.4 1015.3 0.0
12/07:30pm 23.3 23.7 16.4 65 4.2 ENE 9 15 5 8 1015.2 1015.1 0.0
12/07:00pm 24.7 24.4 16.4 60 5.1 ENE 13 20 7 11 1014.9 1014.8 0.0
12/06:30pm 25.6 25.0 15.6 54 6.1 E 13 24 7 13 1014.7 1014.6 0.0
12/06:00pm 26.3 25.1 16.0 53 6.3 E 17 22 9 12 1014.6 1014.5 0.0
12/05:30pm 26.9 26.0 15.9 51 6.7 E 15 24 8 13 1014.3 1014.2 0.0
12/05:00pm 27.2 26.0 16.2 51 6.8 E 17 24 9 13 1014.3 1014.2 0.0
12/04:30pm 27.4 26.4 16.7 52 6.7 ENE 17 24 9 13 1014.3 1014.2 0.0
12/04:00pm 27.4 26.2 16.1 50 7.0 E 17 24 9 13 1014.4 1014.3 0.0
12/03:30pm 28.0 27.0 16.6 50 7.1 E 17 22 9 12 1014.5 1014.4 0.0
12/03:00pm 27.5 26.3 16.1 49 7.0 E 17 24 9 13 1014.7 1014.6 0.0
12/02:30pm 28.1 27.0 16.4 49 7.3 ENE 17 22 9 12 1014.8 1014.7 0.0
12/02:00pm 28.3 28.3 19.0 57 6.0 E 17 26 9 14 1015.0 1014.9 0.0
12/01:30pm 27.6 26.7 16.9 52 6.7 ENE 17 26 9 14 1015.2 1015.1 0.0
12/01:00pm 27.9 27.4 17.7 53 6.4 E 17 24 9 13 1015.3 1015.2 0.0
12/12:30pm 27.7 27.3 16.3 49 7.1 ESE 13 20 7 11 1015.7 1015.6 0.0
12/12:00pm 27.0 26.6 16.3 52 6.6 ENE 13 17 7 9 1016.1 1016.0 0.0
12/11:30am 27.1 27.4 17.0 54 6.3 ESE 11 17 6 9 1016.3 1016.2 0.0
12/11:00am 26.2 27.6 17.3 58 5.6 ESE 6 13 3 7 1016.4 1016.3 0.0
12/10:30am 25.5 26.5 16.9 59 5.3 ESE 7 13 4 7 1016.5 1016.4 0.0
12/10:00am 25.5 26.0 16.6 58 5.5 SSE 9 13 5 7 1016.5 1016.4 0.0
12/09:30am 24.5 26.3 18.2 68 4.0 SW 6 9 3 5 1016.5 1016.4 0.0
12/09:00am 22.4 24.1 18.6 79 2.4 W 7 11 4 6 1016.7 1016.6 0.0
12/08:30am 20.7 22.4 18.5 87 1.4 W 7 11 4 6 1016.6 1016.5 0.0
12/08:00am 19.1 20.0 17.6 91 0.9 WNW 9 13 5 7 1016.2 1016.1 0.0
12/07:30am 18.3 19.5 17.3 94 0.6 W 7 13 4 7 1015.9 1015.8 0.0
12/07:00am 17.0 17.6 15.9 93 0.6 W 7 9 4 5 1015.7 1015.6 0.0
12/06:30am 16.6 17.1 15.5 93 0.6 WSW 7 9 4 5 1015.4 1015.3 0.0
12/06:00am 16.9 17.7 15.8 93 0.6 WSW 6 7 3 4 1015.2 1015.1 0.0
12/05:30am 17.3 18.6 16.2 93 0.7 WSW 4 7 2 4 1014.9 1014.8 0.0
12/05:00am 17.7 18.6 16.6 93 0.7 WSW 7 9 4 5 1014.8 1014.7 0.0
12/04:30am 17.5 19.7 16.4 93 0.7 CALM 0 0 0 0 1014.8 1014.7 0.0
12/04:00am 16.9 18.8 15.8 93 0.6 CALM 0 0 0 0 1014.9 1014.8 0.0
12/03:30am 17.0 18.9 15.7 92 0.8 CALM 0 0 0 0 1014.8 1014.7 0.0
12/03:00am 17.3 18.2 16.2 93 0.7 W 6 7 3 4 1014.8 1014.7 0.0
12/02:30am 17.2 17.8 15.9 92 0.8 W 7 9 4 5 1015.1 1015.0 0.0
12/02:00am 17.7 19.9 16.6 93 0.7 CALM 0 0 0 0 1015.2 1015.1 0.0
12/01:30am 17.0 18.9 15.7 92 0.8 CALM 0 0 0 0 1015.3 1015.2 0.0
12/01:00am 17.9 18.5 16.8 93 0.7 W 9 9 5 5 1015.6 1015.5 0.0
12/12:30am 17.5 19.4 15.8 90 1.0 CALM 0 0 0 0 1016.1 1016.0 0.0
12/12:00am 18.1 20.3 16.6 91 0.9 CALM 0 0 0 0 1016.1 1016.0 0.0
 
Date/Time
EDT
Temp
°C
App
Temp
°C
Dew
Point
Rel
Hum
%
Delta-T
°C
Wind Press
QNH
hPa
Press
MSL
hPa
Rain
since 9 am
mm
Dir
 
Spd
km/h
Gust
km/h
Spd
kts
Gust
kts
11/11:30pm 18.8 20.1 17.1 90 1.0 W 6 7 3 4 1016.2 1016.1 0.0
11/11:00pm 19.2 20.5 17.5 90 1.0 W 7 9 4 5 1016.2 1016.1 0.0
11/10:30pm 19.0 20.1 17.1 89 1.2 WSW 7 9 4 5 1016.2 1016.1 0.0
11/10:00pm 19.3 20.4 17.1 87 1.3 WSW 7 9 4 5 1016.0 1015.9 0.0
11/09:30pm 20.0 22.6 17.4 85 1.6 CALM 0 0 0 0 1015.8 1015.7 0.0
11/09:00pm 20.6 23.0 17.0 80 2.2 CALM 0 0 0 0 1015.4 1015.3 0.0
11/08:30pm 22.0 23.6 17.8 77 2.6 ENE 6 11 3 6 1014.9 1014.8 0.0
11/08:00pm 22.7 23.7 17.8 74 3.0 ENE 9 13 5 7 1014.5 1014.4 0.0
11/07:30pm 23.8 24.1 17.8 69 3.7 ENE 13 19 7 10 1014.3 1014.2 0.0
11/07:00pm 25.0 24.8 17.7 64 4.6 E 15 22 8 12 1014.0 1013.9 0.0
11/06:30pm 25.3 25.6 18.0 64 4.6 ENE 13 24 7 13 1013.7 1013.6 0.0
11/06:00pm 25.5 25.0 17.9 63 4.8 E 17 26 9 14 1013.4 1013.3 0.0
11/05:30pm 26.8 25.9 17.8 57 5.7 NE 19 24 10 13 1013.0 1012.9 0.0
11/05:00pm 27.2 26.3 17.7 56 6.0 ENE 19 28 10 15 1012.9 1012.8 0.0
11/04:30pm 27.3 26.2 17.8 56 6.0 E 20 28 11 15 1013.0 1012.9 0.0
11/04:00pm 27.6 26.6 17.5 54 6.4 ENE 19 28 10 15 1013.0 1012.9 0.0
11/03:30pm 28.0 27.5 18.7 57 6.0 ENE 19 30 10 16 1013.3 1013.2 0.0
11/03:00pm 28.0 27.7 19.5 60 5.5 ENE 20 28 11 15 1013.3 1013.2 0.0
11/02:30pm 28.2 28.2 18.9 57 6.0 ENE 17 26 9 14 1013.5 1013.4 0.0
11/02:00pm 27.2 26.9 18.2 58 5.7 ENE 17 28 9 15 1013.7 1013.6 0.0
11/01:30pm 27.8 27.6 18.5 57 5.9 ENE 17 24 9 13 1013.8 1013.7 0.0
11/01:00pm 28.2 28.8 18.6 56 6.2 ENE 13 22 7 12 1014.0 1013.9 0.0
11/12:30pm 28.6 29.2 17.8 52 6.9 NE 11 24 6 13 1014.2 1014.1 0.0
11/12:00pm 27.9 29.4 17.7 53 6.4 E 6 15 3 8 1014.4 1014.3 0.0
11/11:30am 26.8 28.4 17.8 57 5.7 NE 6 13 3 7 1014.7 1014.6 0.0
11/11:00am 26.9 28.9 18.7 60 5.2 ESE 6 11 3 6 1015.0 1014.9 0.0

Other Formats:

Comma delimited format used in spreadsheet applications
http://www.bom.gov.au/fwo/IDN60801/IDN60801.94785.axf

JavaScript Object Notation format (JSON) in row-major order
http://www.bom.gov.au/fwo/IDN60801/IDN60801.94785.json